createdAt,value
2023-04-29T00:01:01.094Z,15.66
2023-04-29T00:03:32.450Z,15.53
2023-04-29T00:06:01.050Z,15.41
2023-04-29T00:08:29.153Z,15.63
2023-04-29T00:10:57.023Z,15.70
2023-04-29T00:13:26.421Z,15.55
2023-04-29T00:15:54.375Z,15.37
2023-04-29T00:18:22.297Z,15.26
2023-04-29T00:20:50.147Z,15.59
2023-04-29T00:23:18.066Z,15.64
2023-04-29T00:25:45.921Z,15.49
2023-04-29T00:28:13.809Z,15.06
2023-04-29T00:30:43.109Z,15.20
2023-04-29T00:33:11.368Z,15.33
2023-04-29T00:35:39.461Z,15.56
2023-04-29T00:38:07.351Z,15.51
2023-04-29T00:40:35.951Z,15.48
2023-04-29T00:43:03.848Z,15.44
2023-04-29T00:45:32.019Z,15.53
2023-04-29T00:48:01.312Z,15.62
2023-04-29T00:50:29.380Z,15.44
2023-04-29T00:52:57.342Z,15.24
2023-04-29T00:55:26.486Z,15.42
2023-04-29T00:57:54.377Z,15.56
2023-04-29T01:00:22.409Z,15.42
2023-04-29T01:02:51.251Z,15.58
2023-04-29T01:05:20.618Z,15.38
2023-04-29T01:07:59.838Z,15.23
2023-04-29T01:10:30.311Z,15.10
2023-04-29T01:13:07.848Z,15.02
2023-04-29T01:15:42.693Z,14.96
2023-04-29T01:18:17.097Z,15.08
2023-04-29T01:20:47.822Z,14.94
2023-04-29T01:23:15.835Z,15.02
2023-04-29T01:25:45.254Z,14.84
2023-04-29T01:28:36.061Z,14.93
2023-04-29T01:31:10.042Z,14.79
2023-04-29T01:33:45.705Z,14.57
2023-04-29T01:36:22.377Z,14.73
2023-04-29T01:38:57.622Z,14.35
2023-04-29T01:41:36.218Z,14.66
2023-04-29T01:44:18.018Z,14.75
2023-04-29T01:46:51.706Z,14.72
2023-04-29T01:49:22.209Z,14.52
2023-04-29T01:51:50.281Z,14.58
2023-04-29T01:54:18.442Z,14.44
2023-04-29T01:56:48.248Z,14.45
2023-04-29T01:59:23.210Z,14.37
2023-04-29T02:02:06.060Z,14.61
2023-04-29T02:04:36.395Z,14.57
2023-04-29T02:07:04.614Z,14.52
2023-04-29T02:09:32.961Z,14.55
2023-04-29T02:12:09.785Z,14.38
2023-04-29T02:14:38.012Z,14.24
2023-04-29T02:17:06.820Z,14.45
2023-04-29T02:19:36.168Z,14.61
2023-04-29T02:22:04.394Z,14.39
2023-04-29T02:24:32.274Z,14.47
2023-04-29T02:27:00.173Z,14.43
2023-04-29T02:29:31.072Z,14.38
2023-04-29T02:31:59.860Z,14.53
2023-04-29T02:34:27.919Z,14.63
2023-04-29T02:36:55.771Z,14.59
2023-04-29T02:39:23.614Z,14.52
2023-04-29T02:41:57.108Z,14.49
2023-04-29T02:44:25.043Z,14.60
2023-04-29T02:46:54.248Z,14.59
2023-04-29T02:49:22.189Z,14.59
2023-04-29T02:51:51.115Z,14.50
2023-04-29T02:54:19.022Z,14.62
2023-04-29T02:56:47.130Z,14.57
2023-04-29T02:59:14.977Z,14.44
2023-04-29T03:01:43.354Z,14.43
2023-04-29T03:04:15.029Z,14.39
2023-04-29T03:06:43.653Z,14.34
2023-04-29T03:09:13.349Z,14.38
2023-04-29T03:11:41.385Z,14.45
2023-04-29T03:14:09.313Z,14.45
2023-04-29T03:16:37.360Z,14.38
2023-04-29T03:19:06.720Z,14.50
2023-04-29T03:21:35.959Z,14.57
2023-04-29T03:24:03.985Z,14.53
2023-04-29T03:26:35.047Z,14.61
2023-04-29T03:29:04.879Z,14.64
2023-04-29T03:31:34.861Z,14.65
2023-04-29T03:34:02.746Z,14.71
2023-04-29T03:36:33.356Z,14.77
2023-04-29T03:39:06.245Z,14.65
2023-04-29T03:41:34.136Z,14.69
2023-04-29T03:44:02.103Z,14.78
2023-04-29T03:46:31.036Z,14.71
2023-04-29T03:48:59.132Z,14.76
2023-04-29T03:51:28.071Z,14.71
2023-04-29T03:54:06.343Z,14.72
2023-04-29T03:56:34.359Z,14.79
2023-04-29T03:59:02.266Z,14.86
2023-04-29T04:01:31.347Z,14.82
2023-04-29T04:03:59.385Z,14.78
2023-04-29T04:06:27.345Z,14.77
2023-04-29T04:08:55.396Z,14.70
2023-04-29T04:11:29.597Z,14.79
2023-04-29T04:14:00.640Z,14.84
2023-04-29T04:16:28.840Z,14.89
2023-04-29T04:18:56.786Z,14.90
2023-04-29T04:21:25.222Z,14.94
2023-04-29T04:24:00.359Z,14.92
2023-04-29T04:26:31.294Z,14.91
2023-04-29T04:29:11.362Z,14.99
2023-04-29T04:31:47.313Z,15.07
2023-04-29T04:34:16.888Z,14.95
2023-04-29T04:36:46.941Z,15.10
2023-04-29T04:39:15.034Z,15.03
2023-04-29T04:41:44.414Z,14.91
2023-04-29T04:44:13.322Z,14.88
2023-04-29T04:46:57.072Z,15.01
2023-04-29T04:49:37.516Z,14.98
2023-04-29T04:52:05.945Z,15.01
2023-04-29T04:54:34.332Z,15.12
2023-04-29T04:57:10.077Z,15.11
2023-04-29T04:59:37.973Z,15.06
2023-04-29T05:02:05.878Z,15.14
2023-04-29T05:04:33.818Z,15.06
2023-04-29T05:07:01.739Z,15.01
2023-04-29T05:09:35.529Z,15.14
2023-04-29T05:12:03.388Z,15.07
2023-04-29T05:14:34.887Z,15.06
2023-04-29T05:17:02.848Z,15.06
2023-04-29T05:19:30.832Z,15.07
2023-04-29T05:21:58.858Z,15.22
2023-04-29T05:24:27.242Z,15.13
2023-04-29T05:26:55.078Z,15.10
2023-04-29T05:29:22.995Z,15.21
2023-04-29T05:31:58.394Z,15.15
2023-04-29T05:34:26.792Z,15.06
2023-04-29T05:36:54.683Z,15.26
2023-04-29T05:39:23.097Z,15.27
2023-04-29T05:41:59.657Z,15.24
2023-04-29T05:44:36.075Z,15.35
2023-04-29T05:47:05.299Z,15.40
2023-04-29T05:49:33.338Z,15.38
2023-04-29T05:52:06.375Z,15.44
2023-04-29T05:54:39.330Z,15.41
2023-04-29T05:57:08.202Z,15.49
2023-04-29T05:59:36.037Z,15.55
2023-04-29T06:02:07.741Z,15.71
2023-04-29T06:04:37.928Z,15.64
2023-04-29T06:07:26.648Z,15.37
2023-04-29T06:10:12.611Z,15.49
2023-04-29T06:12:43.170Z,15.58
2023-04-29T06:15:12.097Z,15.65
2023-04-29T06:17:41.325Z,15.58
2023-04-29T06:20:10.622Z,15.55
2023-04-29T06:22:40.330Z,15.44
2023-04-29T06:25:09.438Z,15.51
2023-04-29T06:27:49.317Z,15.39
2023-04-29T06:30:19.197Z,15.59
2023-04-29T06:32:48.491Z,15.67
2023-04-29T06:35:16.963Z,15.73
2023-04-29T06:37:50.973Z,15.71
2023-04-29T06:40:44.226Z,15.65
2023-04-29T06:43:26.984Z,15.51
2023-04-29T06:46:34.207Z,15.48
2023-04-29T06:49:07.297Z,15.38
2023-04-29T06:51:36.960Z,15.50
2023-04-29T06:54:05.051Z,15.37
2023-04-29T06:56:32.920Z,15.66
2023-04-29T06:59:00.837Z,15.47
2023-04-29T07:01:28.979Z,15.40
2023-04-29T07:03:56.984Z,15.45
2023-04-29T07:06:26.913Z,15.38
2023-04-29T07:08:56.857Z,15.37
2023-04-29T07:11:26.948Z,15.31
2023-04-29T07:13:54.861Z,15.42
2023-04-29T07:16:26.380Z,14.85
2023-04-29T07:18:54.431Z,15.09
2023-04-29T07:21:22.398Z,15.29
2023-04-29T07:23:51.670Z,15.16
2023-04-29T07:26:19.761Z,15.18
2023-04-29T07:28:47.605Z,15.01
2023-04-29T07:31:16.721Z,15.26
2023-04-29T07:33:46.366Z,15.10
2023-04-29T07:36:14.355Z,15.15
2023-04-29T07:38:42.197Z,15.28
2023-04-29T07:41:11.447Z,15.22
2023-04-29T07:43:42.208Z,14.95
2023-04-29T07:46:10.626Z,15.14
2023-04-29T07:48:39.426Z,15.19
2023-04-29T07:51:08.778Z,15.11
2023-04-29T07:53:36.952Z,15.11
2023-04-29T07:56:07.415Z,15.11
2023-04-29T07:58:37.022Z,14.86
2023-04-29T08:01:09.154Z,14.98
2023-04-29T08:03:40.615Z,15.01
2023-04-29T08:06:09.972Z,14.96
2023-04-29T08:08:38.017Z,14.67
2023-04-29T08:11:06.741Z,15.02
2023-04-29T08:13:36.032Z,15.05
2023-04-29T08:16:03.968Z,14.91
2023-04-29T08:18:31.961Z,14.46
2023-04-29T08:20:59.889Z,14.71
2023-04-29T08:23:27.797Z,14.52
2023-04-29T08:25:56.019Z,14.43
2023-04-29T08:28:24.053Z,14.62
2023-04-29T08:30:53.268Z,14.79
2023-04-29T08:33:21.260Z,14.56
2023-04-29T08:35:49.887Z,14.84
2023-04-29T08:38:17.722Z,14.79
2023-04-29T08:40:47.725Z,14.72
2023-04-29T08:43:15.826Z,14.66
2023-04-29T08:45:44.411Z,14.47
2023-04-29T08:48:14.438Z,14.61
2023-04-29T08:50:43.350Z,14.33
2023-04-29T08:53:12.961Z,14.59
2023-04-29T08:55:45.162Z,14.76
2023-04-29T08:58:14.171Z,14.33
2023-04-29T09:00:44.093Z,14.45
2023-04-29T09:03:21.056Z,14.60
2023-04-29T09:05:53.968Z,14.52
2023-04-29T09:08:23.924Z,14.67
2023-04-29T09:10:52.780Z,14.65
2023-04-29T09:13:28.084Z,14.64
2023-04-29T09:15:56.176Z,14.69
2023-04-29T09:18:44.818Z,14.66
2023-04-29T09:21:19.677Z,14.66
2023-04-29T09:23:50.738Z,14.37
2023-04-29T09:26:18.804Z,14.58
2023-04-29T09:28:47.747Z,14.60
2023-04-29T09:31:15.869Z,14.21
2023-04-29T09:33:55.647Z,14.53
2023-04-29T09:36:37.714Z,14.40
2023-04-29T09:39:11.236Z,14.19
2023-04-29T09:41:45.000Z,14.20
2023-04-29T09:44:12.884Z,14.40
2023-04-29T09:46:40.870Z,14.37
2023-04-29T09:49:26.114Z,14.13
2023-04-29T09:51:55.230Z,14.34
2023-04-29T09:54:24.082Z,14.33
2023-04-29T09:56:53.319Z,14.02
2023-04-29T09:59:22.119Z,14.37
2023-04-29T10:01:51.494Z,14.19
2023-04-29T10:04:20.728Z,14.19
2023-04-29T10:06:52.292Z,14.61
2023-04-29T10:09:21.373Z,14.84
2023-04-29T10:11:50.759Z,14.43
2023-04-29T10:14:20.065Z,14.64
2023-04-29T10:16:50.921Z,14.47
2023-04-29T10:19:26.383Z,14.33
2023-04-29T10:21:59.732Z,14.44
2023-04-29T10:24:27.861Z,14.62
2023-04-29T10:26:58.701Z,14.60
2023-04-29T10:29:29.583Z,14.75
2023-04-29T10:31:59.887Z,14.66
2023-04-29T10:34:29.418Z,14.90
2023-04-29T10:36:59.447Z,14.75
2023-04-29T10:39:37.424Z,14.60
2023-04-29T10:42:07.374Z,14.92
2023-04-29T10:45:16.922Z,14.85
2023-04-29T10:48:18.851Z,15.12
2023-04-29T10:51:05.957Z,15.02
2023-04-29T10:53:35.632Z,14.97
2023-04-29T10:56:11.172Z,14.73
2023-04-29T10:58:42.476Z,14.67
2023-04-29T11:01:12.900Z,14.52
2023-04-29T11:03:58.444Z,14.73
2023-04-29T11:06:40.172Z,15.05
2023-04-29T11:09:12.045Z,15.51
2023-04-29T11:11:58.030Z,15.34
2023-04-29T11:14:27.760Z,15.30
2023-04-29T11:16:58.953Z,15.39
2023-04-29T11:19:31.722Z,15.09
2023-04-29T11:22:13.625Z,15.43
2023-04-29T11:24:53.719Z,15.70
2023-04-29T11:27:25.462Z,15.61
2023-04-29T11:29:58.375Z,16.01
2023-04-29T11:32:26.994Z,16.29
2023-04-29T11:34:55.289Z,16.39
2023-04-29T11:37:25.172Z,15.98
2023-04-29T11:40:01.045Z,15.99
2023-04-29T11:42:28.984Z,16.23
2023-04-29T11:44:59.423Z,16.15
2023-04-29T11:47:29.509Z,16.25
2023-04-29T11:50:04.435Z,16.45
2023-04-29T11:52:32.608Z,16.13
2023-04-29T11:55:01.891Z,16.24
2023-04-29T11:57:29.934Z,16.29
2023-04-29T11:59:59.027Z,16.50
2023-04-29T12:02:30.912Z,16.49
2023-04-29T12:05:01.020Z,16.55
2023-04-29T12:07:29.575Z,16.48
2023-04-29T12:09:57.877Z,16.28
2023-04-29T12:12:28.425Z,16.37
2023-04-29T12:14:56.948Z,16.14
2023-04-29T12:17:25.700Z,16.20
2023-04-29T12:19:53.712Z,16.19
2023-04-29T12:22:21.741Z,16.01
2023-04-29T12:24:50.824Z,15.75
2023-04-29T12:27:19.070Z,15.71
2023-04-29T12:29:48.419Z,15.72
2023-04-29T12:32:18.609Z,16.01
2023-04-29T12:34:47.324Z,16.21
2023-04-29T12:37:16.604Z,16.11
2023-04-29T12:39:45.582Z,16.50
2023-04-29T12:42:17.094Z,16.68
2023-04-29T12:44:48.227Z,16.61
2023-04-29T12:47:17.577Z,16.40
2023-04-29T12:49:46.555Z,16.61
2023-04-29T12:52:14.582Z,16.88
2023-04-29T12:54:43.655Z,16.83
2023-04-29T12:57:12.401Z,16.70
2023-04-29T12:59:41.293Z,17.11
2023-04-29T13:02:10.881Z,17.26
2023-04-29T13:04:40.121Z,17.47
2023-04-29T13:07:08.269Z,17.26
2023-04-29T13:09:38.092Z,17.07
2023-04-29T13:12:09.546Z,16.91
2023-04-29T13:14:37.598Z,17.33
2023-04-29T13:17:06.353Z,17.11
2023-04-29T13:19:50.181Z,17.43
2023-04-29T13:22:19.368Z,17.34
2023-04-29T13:24:47.517Z,16.95
2023-04-29T13:27:15.384Z,17.51
2023-04-29T13:29:43.229Z,17.77
2023-04-29T13:32:11.448Z,17.73
2023-04-29T13:34:43.225Z,17.18
2023-04-29T13:37:11.542Z,17.62
2023-04-29T13:39:39.772Z,17.35
2023-04-29T13:42:08.944Z,17.73
2023-04-29T13:44:49.745Z,17.76
2023-04-29T13:47:25.715Z,17.64
2023-04-29T13:50:16.912Z,18.42
2023-04-29T13:56:07.253Z,17.78
2023-04-29T13:58:43.368Z,18.04
2023-04-29T14:03:20.618Z,17.75
2023-04-29T14:05:50.016Z,17.28
2023-04-29T14:08:17.869Z,17.36
2023-04-29T14:10:45.702Z,16.96
2023-04-29T14:13:13.554Z,16.98
2023-04-29T14:15:41.669Z,17.36
2023-04-29T14:18:10.652Z,17.41
2023-04-29T14:20:39.237Z,17.45
2023-04-29T14:23:08.465Z,17.45
2023-04-29T14:25:36.355Z,17.55
2023-04-29T14:28:04.345Z,17.76
2023-04-29T14:30:32.233Z,17.65
2023-04-29T14:33:00.142Z,17.41
2023-04-29T14:35:27.979Z,17.50
2023-04-29T14:37:55.954Z,17.61
2023-04-29T14:40:25.676Z,17.81
2023-04-29T14:42:53.556Z,17.95
2023-04-29T14:45:21.401Z,18.41
2023-04-29T14:47:49.259Z,17.96
2023-04-29T14:50:17.759Z,18.23
2023-04-29T14:52:45.919Z,18.44
2023-04-29T14:55:13.796Z,18.41
2023-04-29T14:57:43.051Z,18.21
2023-04-29T15:00:12.197Z,18.53
2023-04-29T15:02:40.093Z,18.61
2023-04-29T15:05:08.464Z,18.50
2023-04-29T15:07:36.413Z,17.23
2023-04-29T15:10:06.627Z,17.59
2023-04-29T15:12:34.595Z,18.29
2023-04-29T15:15:04.871Z,18.29
2023-04-29T15:17:32.746Z,17.92
2023-04-29T15:20:00.625Z,17.45
2023-04-29T15:22:28.524Z,17.44
2023-04-29T15:24:56.456Z,17.63
2023-04-29T15:27:24.586Z,17.77
2023-04-29T15:29:54.430Z,17.53
2023-04-29T15:32:24.674Z,17.58
2023-04-29T15:34:52.709Z,17.52
2023-04-29T15:37:21.626Z,17.92
2023-04-29T15:39:50.551Z,17.96
2023-04-29T15:42:18.420Z,17.93
2023-04-29T15:44:46.369Z,17.93
2023-04-29T15:47:14.417Z,17.96
2023-04-29T15:49:44.602Z,18.15
2023-04-29T15:52:12.478Z,17.84
2023-04-29T15:54:41.014Z,17.97
2023-04-29T15:57:08.895Z,17.81
2023-04-29T15:59:36.813Z,17.67
2023-04-29T16:02:10.327Z,17.81
2023-04-29T16:04:38.345Z,17.81
2023-04-29T16:07:07.828Z,17.94
2023-04-29T16:09:36.494Z,17.63
2023-04-29T16:12:04.672Z,17.89
2023-04-29T16:14:32.766Z,17.75
2023-04-29T16:17:01.589Z,17.73
2023-04-29T16:19:29.523Z,17.78
2023-04-29T16:21:57.400Z,17.84
2023-04-29T16:24:26.786Z,17.63
2023-04-29T16:26:54.626Z,17.78
2023-04-29T16:29:22.540Z,17.62
2023-04-29T16:31:50.760Z,17.84
2023-04-29T16:34:18.764Z,17.78
2023-04-29T16:36:46.683Z,17.83
2023-04-29T16:39:14.587Z,18.00
2023-04-29T16:41:43.785Z,17.98
2023-04-29T16:44:11.684Z,17.92
2023-04-29T16:46:39.769Z,18.24
2023-04-29T16:49:07.893Z,18.21
2023-04-29T16:51:36.050Z,18.25
2023-04-29T16:54:04.036Z,18.22
2023-04-29T16:56:31.924Z,17.95
2023-04-29T16:59:01.140Z,18.04
2023-04-29T17:01:29.315Z,18.02
2023-04-29T17:03:57.383Z,17.81
2023-04-29T17:06:25.644Z,17.29
2023-04-29T17:08:53.719Z,17.81
2023-04-29T17:11:21.605Z,17.53
2023-04-29T17:13:50.406Z,17.79
2023-04-29T17:16:19.837Z,17.44
2023-04-29T17:18:47.832Z,17.50
2023-04-29T17:21:15.701Z,17.49
2023-04-29T17:23:43.552Z,17.19
2023-04-29T17:26:11.494Z,17.47
2023-04-29T17:28:39.412Z,17.49
2023-04-29T17:31:07.344Z,17.31
2023-04-29T17:33:39.522Z,17.57
2023-04-29T17:36:07.870Z,17.52
2023-04-29T17:38:35.928Z,17.50
2023-04-29T17:41:04.022Z,17.74
2023-04-29T17:43:35.320Z,17.88
2023-04-29T17:46:03.728Z,17.56
2023-04-29T17:48:32.460Z,17.46
2023-04-29T17:51:01.849Z,17.32
2023-04-29T17:53:30.020Z,17.15
2023-04-29T17:55:57.942Z,17.27
2023-04-29T17:58:28.748Z,17.26
2023-04-29T18:00:57.050Z,17.19
2023-04-29T18:03:27.272Z,16.84
2023-04-29T18:05:55.420Z,16.63
2023-04-29T18:08:24.886Z,16.90
2023-04-29T18:10:52.865Z,16.95
2023-04-29T18:13:20.785Z,16.69
2023-04-29T18:15:48.782Z,16.76
2023-04-29T18:18:16.657Z,16.79
2023-04-29T18:20:44.918Z,16.66
2023-04-29T18:23:14.005Z,16.66
2023-04-29T18:25:43.560Z,16.73
2023-04-29T18:28:23.980Z,16.67
2023-04-29T18:30:53.126Z,16.37
2023-04-29T18:33:21.450Z,16.59
2023-04-29T18:35:49.363Z,16.53
2023-04-29T18:38:17.468Z,16.32
2023-04-29T18:40:46.937Z,16.35
2023-04-29T18:43:18.003Z,16.23
2023-04-29T18:45:46.562Z,16.19
2023-04-29T18:48:15.065Z,16.13
2023-04-29T18:50:43.202Z,16.13
2023-04-29T18:53:11.237Z,16.12
2023-04-29T18:55:39.192Z,16.16
2023-04-29T18:58:09.295Z,15.97
2023-04-29T19:00:37.284Z,16.00
2023-04-29T19:03:05.804Z,16.07
2023-04-29T19:05:33.724Z,16.06
2023-04-29T19:08:01.555Z,15.99
2023-04-29T19:10:29.456Z,16.03
2023-04-29T19:12:57.381Z,16.00
2023-04-29T19:15:28.044Z,15.95
2023-04-29T19:17:56.206Z,15.99
2023-04-29T19:20:24.111Z,15.97
2023-04-29T19:22:52.090Z,15.91
2023-04-29T19:25:20.234Z,15.83
2023-04-29T19:27:48.977Z,15.75
2023-04-29T19:30:17.006Z,15.87
2023-04-29T19:32:47.644Z,15.78
2023-04-29T19:35:15.622Z,15.79
2023-04-29T19:37:44.224Z,15.72
2023-04-29T19:40:12.796Z,15.67
2023-04-29T19:42:40.955Z,15.60
2023-04-29T19:45:10.194Z,15.61
2023-04-29T19:47:38.115Z,15.53
2023-04-29T19:50:07.940Z,15.40
2023-04-29T19:52:35.875Z,15.43
2023-04-29T19:55:04.858Z,15.43
2023-04-29T19:57:33.109Z,15.58
2023-04-29T20:00:01.452Z,15.58
2023-04-29T20:02:29.450Z,15.66
2023-04-29T20:04:57.386Z,15.67
2023-04-29T20:07:26.641Z,15.63
2023-04-29T20:09:55.019Z,15.50
2023-04-29T20:12:23.267Z,15.64
2023-04-29T20:14:51.098Z,15.48
2023-04-29T20:17:18.991Z,15.37
2023-04-29T20:19:46.824Z,15.50
2023-04-29T20:22:14.766Z,15.44
2023-04-29T20:24:44.717Z,15.46
2023-04-29T20:27:12.697Z,15.36
2023-04-29T20:29:40.554Z,15.36
2023-04-29T20:32:08.718Z,15.32
2023-04-29T20:34:37.889Z,15.26
2023-04-29T20:37:06.929Z,15.32
2023-04-29T20:39:35.191Z,15.23
2023-04-29T20:42:05.357Z,15.30
2023-04-29T20:44:34.014Z,15.12
2023-04-29T20:47:01.922Z,15.15
2023-04-29T20:49:29.836Z,15.10
2023-04-29T20:51:58.756Z,15.16
2023-04-29T20:54:26.702Z,15.18
2023-04-29T20:56:54.573Z,15.18
2023-04-29T20:59:23.798Z,15.15
2023-04-29T21:01:51.803Z,15.01
2023-04-29T21:04:21.058Z,14.76
2023-04-29T21:06:50.651Z,14.62
2023-04-29T21:09:19.232Z,14.67
2023-04-29T21:11:47.104Z,14.54
2023-04-29T21:14:15.287Z,14.39
2023-04-29T21:16:44.485Z,14.48
2023-04-29T21:19:12.349Z,14.48
2023-04-29T21:21:40.221Z,14.52
2023-04-29T21:24:08.112Z,14.31
2023-04-29T21:26:35.951Z,14.24
2023-04-29T21:29:04.312Z,14.37
2023-04-29T21:31:32.431Z,14.21
2023-04-29T21:34:01.791Z,14.36
2023-04-29T21:36:29.701Z,14.20
2023-04-29T21:38:57.589Z,14.25
2023-04-29T21:41:27.437Z,13.73
2023-04-29T21:43:57.495Z,13.87
2023-04-29T21:46:26.217Z,13.72
2023-04-29T21:48:54.316Z,14.07
2023-04-29T21:51:23.703Z,13.79
2023-04-29T21:53:52.136Z,13.92
2023-04-29T21:56:21.705Z,13.87
2023-04-29T21:58:49.657Z,13.64
2023-04-29T22:01:27.603Z,13.88
2023-04-29T22:03:57.067Z,13.68
2023-04-29T22:06:26.714Z,13.81
2023-04-29T22:08:54.673Z,13.63
2023-04-29T22:11:22.618Z,13.53
2023-04-29T22:13:50.574Z,13.51
2023-04-29T22:16:19.261Z,13.77
2023-04-29T22:18:48.219Z,14.12
2023-04-29T22:21:16.175Z,13.58
2023-04-29T22:23:45.776Z,13.57
2023-04-29T22:26:13.761Z,13.44
2023-04-29T22:28:41.993Z,13.45
2023-04-29T22:31:10.025Z,13.73
2023-04-29T22:33:37.904Z,13.47
2023-04-29T22:36:05.968Z,13.63
2023-04-29T22:38:34.967Z,13.71
2023-04-29T22:41:04.368Z,13.66
2023-04-29T22:43:32.268Z,13.56
2023-04-29T22:46:00.291Z,13.64
2023-04-29T22:48:28.621Z,13.12
2023-04-29T22:50:59.139Z,13.00
2023-04-29T22:53:27.122Z,12.97
2023-04-29T22:55:56.909Z,12.76
2023-04-29T22:58:27.090Z,12.85
2023-04-29T23:00:57.081Z,12.70
2023-04-29T23:03:25.918Z,12.70
2023-04-29T23:05:58.079Z,12.51
2023-04-29T23:08:26.090Z,12.39
2023-04-29T23:10:54.430Z,12.53
2023-04-29T23:13:22.322Z,12.68
2023-04-29T23:15:52.271Z,12.44
2023-04-29T23:18:20.252Z,12.17
2023-04-29T23:20:48.573Z,12.26
2023-04-29T23:23:16.495Z,12.54
2023-04-29T23:25:45.290Z,12.12
2023-04-29T23:28:13.246Z,12.16
2023-04-29T23:30:41.137Z,12.47
2023-04-29T23:33:10.379Z,12.58
2023-04-29T23:35:38.224Z,12.23
2023-04-29T23:38:06.168Z,12.49
2023-04-29T23:40:34.173Z,12.03
2023-04-29T23:43:02.015Z,12.01
2023-04-29T23:45:29.859Z,12.04
2023-04-29T23:47:57.767Z,12.12
2023-04-29T23:50:27.224Z,12.09
2023-04-29T23:52:55.096Z,11.74
2023-04-29T23:55:23.044Z,11.96
2023-04-29T23:57:50.898Z,11.91
